Time;durP1;ratioP1;P1;durP2;ratioP2;P2;SDS_P1;SDS_P2;PMS_P1;PMS_P2;Temp;Humidity;BMP_temperature;BMP_pressure;BME280_temperature;BME280_humidity;BME280_pressure;Samples;Min_cycle;Max_cycle;Signal;HPM_P1;HPM_P2
2022/05/11 00:01:47;;;;;;;9.73;7.15;;;;;;;16.81;72.81;100705.47;4984533;28;20052;-80
2022/05/11 00:04:16;;;;;;;10.90;7.88;;;;;;;16.79;72.67;100712.63;4970740;28;20050;-81
2022/05/11 00:06:42;;;;;;;6.95;6.35;;;;;;;16.78;73.02;100704.72;4997902;28;20105;-81
2022/05/11 00:09:13;;;;;;;7.28;6.57;;;;;;;16.76;72.90;100696.84;4996637;28;20344;-82
2022/05/11 00:11:41;;;;;;;8.40;7.43;;;;;;;16.77;73.30;100695.09;5000076;28;20046;-81
2022/05/11 00:14:08;;;;;;;8.68;7.63;;;;;;;16.75;73.28;100694.25;4969080;28;21058;-82
2022/05/11 00:16:35;;;;;;;9.57;8.02;;;;;;;16.74;73.47;100684.59;4997763;28;20050;-81
2022/05/11 00:19:02;;;;;;;12.50;9.32;;;;;;;16.72;74.12;100679.38;4985264;28;20055;-81
2022/05/11 00:21:29;;;;;;;10.60;7.85;;;;;;;16.71;74.11;100677.63;4962726;28;20046;-82
2022/05/11 00:23:56;;;;;;;9.85;8.00;;;;;;;16.72;74.03;100674.06;4983897;28;20373;-81
2022/05/11 00:26:22;;;;;;;9.02;7.68;;;;;;;16.73;74.19;100678.47;4982264;28;20489;-82
2022/05/11 00:28:49;;;;;;;10.60;8.68;;;;;;;16.76;74.60;100691.56;5002121;28;20430;-81
2022/05/11 00:31:15;;;;;;;10.68;7.35;;;;;;;16.79;74.96;100693.22;4987990;28;20053;-81
2022/05/11 00:33:42;;;;;;;8.77;7.57;;;;;;;16.81;74.53;100688.78;4998778;28;20057;-81
2022/05/11 00:36:11;;;;;;;10.50;8.02;;;;;;;16.82;74.36;100680.78;4963790;28;20351;-83
2022/05/11 00:38:40;;;;;;;9.35;6.95;;;;;;;16.81;74.08;100684.34;4978950;28;20046;-84
2022/05/11 00:41:07;;;;;;;8.60;7.68;;;;;;;16.83;73.83;100684.28;4960172;28;20054;-81
2022/05/11 00:43:40;;;;;;;11.13;8.73;;;;;;;16.81;73.71;100675.56;4982965;28;20046;-81
2022/05/11 00:46:39;;;;;;;13.13;8.95;;;;;;;16.77;74.67;100679.22;4977521;28;20046;-81
2022/05/11 00:52:41;;;;;;;13.52;7.78;;;;;;;16.75;75.99;100681.91;4943434;28;20050;-82
2022/05/11 00:55:20;;;;;;;8.30;7.35;;;;;;;16.73;75.22;100672.31;4967626;28;20057;-82
2022/05/11 00:58:19;;;;;;;12.93;8.48;;;;;;;16.70;76.12;100671.50;4965531;28;20090;-82
2022/05/11 01:00:47;;;;;;;11.73;8.60;;;;;;;16.67;75.61;100671.59;4954962;28;20097;-81
2022/05/11 01:03:20;;;;;;;8.45;7.53;;;;;;;16.65;75.93;100662.84;4951457;28;20103;-80
2022/05/11 01:05:47;;;;;;;9.73;7.72;;;;;;;16.64;76.54;100652.34;4974625;28;20572;-82
2022/05/11 01:08:17;;;;;;;9.30;8.18;;;;;;;16.60;76.72;100640.16;4963547;28;20053;-81
2022/05/11 01:10:48;;;;;;;9.40;7.97;;;;;;;16.54;77.01;100642.09;4948801;28;20500;-81
2022/05/11 01:13:17;;;;;;;8.73;7.60;;;;;;;16.51;77.58;100665.09;4974341;28;20105;-82
2022/05/11 01:15:49;;;;;;;10.07;8.25;;;;;;;16.49;78.00;100661.63;4960194;28;20170;-81
2022/05/11 01:18:17;;;;;;;11.05;8.13;;;;;;;16.46;78.04;100662.59;4956044;28;20046;-82
2022/05/11 01:20:46;;;;;;;9.00;7.45;;;;;;;16.45;77.96;100654.72;4979369;28;20140;-82
2022/05/11 01:23:40;;;;;;;10.15;8.07;;;;;;;16.42;78.40;100642.47;4962601;28;20045;-82
2022/05/11 01:26:06;;;;;;;8.93;8.00;;;;;;;16.41;78.32;100653.97;4977719;28;20046;-82
2022/05/11 01:28:33;;;;;;;9.07;8.20;;;;;;;16.41;78.46;100640.75;4950022;28;20042;-82
2022/05/11 01:31:08;;;;;;;8.98;7.72;;;;;;;16.43;78.03;100640.72;4984162;28;20385;-83
2022/05/11 01:33:38;;;;;;;11.27;8.52;;;;;;;16.42;77.73;100631.06;4978605;28;20056;-83
2022/05/11 01:36:29;;;;;;;7.82;6.38;;;;;;;16.43;77.66;100627.50;4952713;28;20134;-82
2022/05/11 01:39:08;;;;;;;6.60;5.88;;;;;;;16.43;75.59;100622.22;4944087;28;20062;-82
2022/05/11 01:41:37;;;;;;;5.93;5.32;;;;;;;16.46;74.20;100622.13;4964959;28;20109;-84
2022/05/11 01:44:09;;;;;;;6.55;4.95;;;;;;;16.52;72.53;100621.91;4965241;28;20046;-81
2022/05/11 01:46:36;;;;;;;11.73;5.30;;;;;;;16.61;69.30;100618.94;4947245;28;20042;-83
2022/05/11 01:49:04;;;;;;;6.93;4.35;;;;;;;16.67;68.11;100615.22;4966288;28;20065;-84
2022/05/11 01:51:31;;;;;;;5.68;3.88;;;;;;;16.69;67.61;100619.53;4959169;28;20964;-81
2022/05/11 01:53:58;;;;;;;6.03;3.40;;;;;;;16.70;67.52;100613.34;4963822;28;20086;-83
2022/05/11 01:56:26;;;;;;;4.43;4.03;;;;;;;16.75;67.12;100609.66;4962627;28;20050;-82
2022/05/11 01:58:53;;;;;;;4.30;3.90;;;;;;;16.77;66.98;100597.28;4966425;28;20100;-80
2022/05/11 02:01:23;;;;;;;4.32;3.80;;;;;;;16.78;66.68;100601.63;4951238;28;20788;-82
2022/05/11 02:03:50;;;;;;;4.35;3.95;;;;;;;16.82;66.84;100597.97;4979609;28;20053;-81
2022/05/11 02:09:02;;;;;;;7.78;3.80;;;;;;;16.87;66.61;100604.81;4975816;28;20038;-82
2022/05/11 02:11:29;;;;;;;6.80;4.80;;;;;;;16.86;66.81;100592.50;4951694;28;20050;-82
2022/05/11 02:13:57;;;;;;;4.13;3.83;;;;;;;16.86;66.81;100586.38;4964878;28;20396;-82
2022/05/11 02:16:24;;;;;;;4.82;4.30;;;;;;;16.84;66.89;100582.91;4964879;28;20104;-82
2022/05/11 02:18:50;;;;;;;4.75;4.35;;;;;;;16.83;67.00;100576.75;4981271;28;20126;-83
2022/05/11 02:21:17;;;;;;;8.05;5.90;;;;;;;16.82;66.99;100568.91;4976036;28;20054;-81
2022/05/11 02:23:44;;;;;;;5.07;4.43;;;;;;;16.81;67.00;100568.00;4963669;28;20137;-81
2022/05/11 02:26:12;;;;;;;11.25;4.70;;;;;;;16.79;66.92;100569.88;4947154;28;20502;-81
2022/05/11 02:28:40;;;;;;;5.15;4.65;;;;;;;16.79;66.68;100576.91;4946265;28;20454;-81
2022/05/11 02:31:06;;;;;;;4.05;3.65;;;;;;;16.78;66.59;100578.72;4965919;28;20049;-81
2022/05/11 02:33:33;;;;;;;4.15;3.78;;;;;;;16.78;66.37;100580.47;4980528;28;20121;-79
2022/05/11 02:35:59;;;;;;;4.28;3.80;;;;;;;16.79;66.14;100575.16;4973296;28;20121;-83
2022/05/11 02:38:33;;;;;;;5.25;4.70;;;;;;;16.80;65.89;100574.22;4943642;28;20069;-82
2022/05/11 02:41:00;;;;;;;4.88;4.30;;;;;;;16.78;66.11;100573.41;4967699;28;20044;-81
2022/05/11 02:43:27;;;;;;;3.80;3.33;;;;;;;16.80;66.07;100576.00;4961410;28;20146;-81
2022/05/11 02:45:54;;;;;;;3.78;3.45;;;;;;;16.79;66.33;100575.16;4966975;28;20055;-82
2022/05/11 02:48:25;;;;;;;8.48;6.28;;;;;;;16.76;68.46;100569.09;4986706;28;20133;-83
2022/05/11 02:50:56;;;;;;;8.02;6.68;;;;;;;16.63;69.82;100571.31;4967321;28;20050;-82
2022/05/11 02:53:25;;;;;;;7.82;6.97;;;;;;;16.50;71.72;100568.25;4983919;28;20327;-80
2022/05/11 02:55:54;;;;;;;7.68;6.97;;;;;;;16.40;73.55;100570.38;4947121;28;20053;-81
2022/05/11 02:58:28;;;;;;;12.95;8.52;;;;;;;16.29;74.88;100568.06;4953680;28;20152;-81
2022/05/11 03:01:00;;;;;;;10.02;8.85;;;;;;;16.18;76.16;100562.31;4985993;28;20564;-81
2022/05/11 03:03:33;;;;;;;13.15;9.02;;;;;;;16.11;77.08;100560.78;4964399;28;20372;-82
2022/05/11 03:06:00;;;;;;;;;;;;;;;16.05;78.54;100551.28;4964527;28;20042;-82
2022/05/11 03:08:29;;;;;;;10.93;8.02;;;;;;;15.99;78.24;100540.94;4968529;28;20380;-82
2022/05/11 03:10:56;;;;;;;11.27;8.82;;;;;;;15.91;78.88;100548.25;4965386;28;20057;-84
2022/05/11 03:13:22;;;;;;;11.98;9.18;;;;;;;15.86;79.38;100551.88;4963021;28;20058;-83
2022/05/11 03:15:49;;;;;;;9.75;8.60;;;;;;;15.81;80.38;100548.56;4952928;28;20077;-81
2022/05/11 03:18:15;;;;;;;13.07;8.63;;;;;;;15.74;80.44;100540.84;4970860;28;20054;-81
2022/05/11 03:20:42;;;;;;;8.02;7.32;;;;;;;15.65;81.15;100540.22;4963071;28;20061;-82
2022/05/11 03:23:09;;;;;;;10.05;9.07;;;;;;;15.58;81.99;100525.50;4963007;28;20501;-83
2022/05/11 03:25:35;;;;;;;11.95;9.05;;;;;;;15.55;82.63;100528.22;4946106;28;20050;-83
2022/05/11 03:28:02;;;;;;;9.32;8.18;;;;;;;15.55;82.15;100530.84;4965914;28;20516;-83
2022/05/11 03:30:29;;;;;;;8.45;7.00;;;;;;;15.58;82.26;100524.63;4950317;28;20581;-82
2022/05/11 03:35:39;;;;;;;;;;;;;;;15.62;82.82;100528.88;4967837;28;20556;-82
2022/05/11 03:38:06;;;;;;;8.75;7.72;;;;;;;15.65;81.30;100520.88;4962757;28;19929;-83
2022/05/11 03:40:37;;;;;;;8.85;7.70;;;;;;;15.69;81.22;100528.63;4965695;28;20058;-83
2022/05/11 03:43:04;;;;;;;12.82;8.10;;;;;;;15.71;80.93;100524.19;4967917;28;20497;-81
2022/05/11 03:45:31;;;;;;;9.00;7.55;;;;;;;15.74;80.49;100525.00;4981221;28;20441;-83
2022/05/11 03:47:57;;;;;;;7.47;6.78;;;;;;;15.76;80.27;100525.81;4963485;28;20417;-84
2022/05/11 03:50:25;;;;;;;9.23;8.35;;;;;;;15.75;80.68;100522.31;4968420;28;20061;-80
2022/05/11 03:52:54;;;;;;;9.15;8.10;;;;;;;15.77;80.77;100523.09;4966096;28;20069;-81
2022/05/11 03:55:22;;;;;;;11.38;7.78;;;;;;;15.79;80.78;100520.44;4964474;28;20054;-83
2022/05/11 03:57:49;;;;;;;9.98;8.90;;;;;;;15.81;81.17;100521.28;4979828;28;20062;-80
2022/05/11 04:00:23;;;;;;;8.75;7.95;;;;;;;15.79;81.26;100516.00;4946796;28;20050;-81
2022/05/11 04:02:53;;;;;;;7.47;6.72;;;;;;;15.81;81.03;100516.88;4954227;28;20112;-81
2022/05/11 04:05:21;;;;;;;10.00;8.90;;;;;;;15.83;81.32;100512.41;4965715;28;20042;-82
2022/05/11 04:07:47;;;;;;;12.45;9.70;;;;;;;15.85;81.63;100513.22;4950017;28;20139;-81
2022/05/11 04:10:16;;;;;;;10.38;9.05;;;;;;;15.86;81.46;100514.06;4983011;28;20057;-82
2022/05/11 04:12:43;;;;;;;9.05;8.15;;;;;;;15.87;81.52;100511.38;4981145;28;20061;-82
2022/05/11 04:15:11;;;;;;;10.00;8.18;;;;;;;15.88;81.87;100514.88;4968181;28;20042;-81
2022/05/11 04:17:39;;;;;;;9.27;8.38;;;;;;;15.87;82.35;100513.16;4964029;28;20050;-81
2022/05/11 04:20:07;;;;;;;10.10;8.15;;;;;;;15.87;82.33;100514.00;4964596;28;20132;-82
2022/05/11 04:22:34;;;;;;;11.18;9.30;;;;;;;15.88;82.59;100510.47;4977940;28;20078;-83
2022/05/11 04:25:01;;;;;;;9.93;7.68;;;;;;;15.89;82.41;100513.94;4965080;28;20555;-83
2022/05/11 04:27:28;;;;;;;11.98;9.45;;;;;;;15.90;82.39;100515.69;4966915;28;20457;-82
2022/05/11 04:29:54;;;;;;;11.05;9.48;;;;;;;15.90;82.61;100507.75;4983551;28;20058;-81
2022/05/11 04:32:21;;;;;;;11.48;9.65;;;;;;;15.91;82.83;100516.56;4953045;28;20081;-81
2022/05/11 04:34:48;;;;;;;8.77;7.97;;;;;;;15.94;82.50;100513.81;4952224;28;20081;-80
2022/05/11 04:37:14;;;;;;;10.82;9.35;;;;;;;15.94;82.79;100516.44;4957320;28;20047;-80
2022/05/11 04:39:43;;;;;;;10.88;9.15;;;;;;;15.95;82.79;100513.75;4955474;28;20042;-80
2022/05/11 04:42:11;;;;;;;12.90;8.35;;;;;;;15.98;82.61;100505.75;4972808;28;20058;-82
2022/05/11 04:44:38;;;;;;;10.60;8.57;;;;;;;16.02;82.25;100514.41;4970466;28;20125;-83
2022/05/11 04:47:13;;;;;;;10.95;9.73;;;;;;;16.04;82.00;100507.31;4951676;28;20038;-82
2022/05/11 04:49:41;;;;;;;14.55;8.65;;;;;;;16.07;81.97;100511.63;4970614;28;20106;-81
2022/05/11 04:52:11;;;;;;;10.52;8.48;;;;;;;16.06;82.07;100517.81;4966729;28;20318;-81
2022/05/11 04:54:41;;;;;;;9.80;8.82;;;;;;;16.10;81.75;100519.44;4946712;28;20050;-81
2022/05/11 04:57:09;;;;;;;11.38;8.65;;;;;;;16.13;81.04;100511.44;4952108;28;20168;-81
2022/05/11 04:59:36;;;;;;;9.60;8.50;;;;;;;16.16;81.14;100517.44;4965511;28;20584;-83
2022/05/11 05:02:04;;;;;;;11.80;8.48;;;;;;;16.19;80.57;100511.19;4982404;28;20042;-81
2022/05/11 05:04:33;;;;;;;9.48;8.48;;;;;;;16.21;80.68;100517.28;4964946;28;20066;-80
2022/05/11 05:07:00;;;;;;;14.00;9.30;;;;;;;16.23;80.54;100507.56;4947029;28;20412;-80
2022/05/11 05:09:26;;;;;;;11.75;8.98;;;;;;;16.26;79.92;100509.22;4966469;28;20053;-81
2022/05/11 05:11:56;;;;;;;10.55;8.55;;;;;;;16.30;79.54;100511.69;4948923;28;20049;-82
2022/05/11 05:14:23;;;;;;;12.73;9.32;;;;;;;16.35;79.07;100519.47;4951448;28;20199;-80
2022/05/11 05:16:49;;;;;;;12.10;9.10;;;;;;;16.42;78.49;100509.53;4965015;28;20050;-82
2022/05/11 05:19:18;;;;;;;8.50;7.43;;;;;;;16.47;78.17;100513.72;4966271;28;20058;-83
2022/05/11 05:21:44;;;;;;;9.52;8.52;;;;;;;16.56;77.79;100514.31;4963845;28;20068;-81
2022/05/11 05:24:11;;;;;;;13.25;8.45;;;;;;;16.65;77.19;100506.91;4951025;28;20179;-81
2022/05/11 05:26:38;;;;;;;11.95;9.10;;;;;;;16.72;76.26;100504.06;4958735;28;20244;-81
2022/05/11 05:31:50;;;;;;;15.48;8.38;;;;;;;16.81;75.60;100501.06;4978262;28;20049;-83
2022/05/11 05:34:16;;;;;;;10.35;7.63;;;;;;;16.86;75.07;100499.97;4943932;28;20046;-82
2022/05/11 05:36:43;;;;;;;12.52;8.77;;;;;;;16.90;74.43;100491.94;4961373;28;20467;-83
2022/05/11 05:39:09;;;;;;;9.90;7.38;;;;;;;16.96;73.75;100497.88;4966374;28;20078;-84
2022/05/11 05:41:36;;;;;;;11.77;7.57;;;;;;;17.03;73.42;100501.16;4960425;28;20124;-82
2022/05/11 05:44:04;;;;;;;9.95;7.05;;;;;;;17.11;72.97;100500.88;4965884;28;20349;-82
2022/05/11 05:46:31;;;;;;;8.07;7.30;;;;;;;17.23;72.46;100504.81;4964966;28;20045;-83
2022/05/11 05:48:57;;;;;;;8.57;7.43;;;;;;;17.35;72.18;100496.38;4965302;28;20062;-83
2022/05/11 05:51:29;;;;;;;10.73;8.20;;;;;;;17.39;71.68;100502.41;4970461;28;20054;-83
2022/05/11 05:53:59;;;;;;;8.48;7.55;;;;;;;17.39;71.58;100498.00;4963430;28;20062;-82
2022/05/11 05:56:26;;;;;;;8.75;7.70;;;;;;;17.42;71.57;100505.81;4952011;28;20047;-83
2022/05/11 05:58:58;;;;;;;7.65;7.05;;;;;;;17.46;71.43;100503.91;4964712;28;20500;-82
2022/05/11 06:01:25;;;;;;;13.77;9.13;;;;;;;17.51;71.30;100501.94;4975867;28;20140;-82
2022/05/11 06:03:52;;;;;;;11.00;7.88;;;;;;;17.56;70.84;100497.31;4960988;28;20054;-82
2022/05/11 06:06:20;;;;;;;13.57;8.23;;;;;;;17.62;70.63;100491.75;4960140;28;20057;-83
2022/05/11 06:08:47;;;;;;;10.73;7.60;;;;;;;17.67;70.11;100484.50;4967110;28;20058;-83
2022/05/11 06:11:13;;;;;;;10.13;8.02;;;;;;;17.76;69.81;100480.59;4966107;28;20047;-83
2022/05/11 06:13:41;;;;;;;11.27;7.22;;;;;;;17.83;69.29;100482.09;4966579;28;20050;-84
2022/05/11 06:16:15;;;;;;;7.10;6.43;;;;;;;17.90;69.28;100481.81;4981379;28;20341;-84
2022/05/11 06:18:43;;;;;;;10.00;6.97;;;;;;;17.91;69.16;100481.72;4969642;28;20497;-84
2022/05/11 06:21:12;;;;;;;8.52;7.65;;;;;;;17.91;69.12;100479.09;4976270;28;20089;-82
2022/05/11 06:23:40;;;;;;;8.15;6.85;;;;;;;17.93;69.20;100481.72;4966952;28;20132;-82
2022/05/11 06:26:08;;;;;;;8.52;7.18;;;;;;;17.94;69.34;100481.66;4967975;28;20050;-82
2022/05/11 06:28:39;;;;;;;7.88;7.15;;;;;;;17.98;69.10;100471.81;4981210;28;20066;-81
2022/05/11 06:31:07;;;;;;;9.15;6.63;;;;;;;18.03;68.79;100469.81;4969075;28;20042;-82
2022/05/11 06:33:34;;;;;;;11.57;7.28;;;;;;;18.12;68.49;100465.88;4969996;28;20058;-82
2022/05/11 06:36:05;;;;;;;8.93;7.53;;;;;;;18.17;66.90;100462.13;4968278;28;20049;-81
2022/05/11 06:38:31;;;;;;;8.57;7.38;;;;;;;18.24;66.99;100465.38;4969395;28;20234;-82
2022/05/11 06:41:05;;;;;;;9.95;6.97;;;;;;;18.27;66.86;100462.56;4968298;28;20053;-82
2022/05/11 06:43:32;;;;;;;9.23;8.07;;;;;;;18.29;66.57;100462.50;4965873;28;20050;-82
2022/05/11 06:45:59;;;;;;;11.93;7.90;;;;;;;18.24;66.72;100459.19;4964966;28;20058;-83
2022/05/11 06:48:25;;;;;;;9.75;7.43;;;;;;;18.30;66.70;100458.91;4970343;28;20058;-82
2022/05/11 06:50:52;;;;;;;7.93;7.20;;;;;;;18.33;66.71;100464.09;4956029;28;20356;-82
2022/05/11 06:53:19;;;;;;;8.40;7.53;;;;;;;18.40;66.60;100452.28;4967319;28;20132;-82
2022/05/11 07:01:14;;;;;;;9.70;7.32;;;;;;;19.16;64.79;100449.69;4970979;28;20077;-81
2022/05/11 07:03:42;;;;;;;9.73;8.73;;;;;;;19.43;63.47;100449.28;4969388;28;20073;-83
2022/05/11 07:06:09;;;;;;;11.00;7.05;;;;;;;19.81;62.74;100450.94;4968274;28;20037;-84
2022/05/11 07:08:42;;;;;;;12.02;8.60;;;;;;;20.16;61.01;100445.66;4958732;28;20060;-83
2022/05/11 07:13:58;;;;;;;10.20;7.28;;;;;;;20.61;59.35;100441.47;4971913;28;20038;-82
2022/05/11 07:16:27;;;;;;;7.32;6.55;;;;;;;20.72;58.94;100438.25;4962818;28;20046;-83
2022/05/11 07:18:53;;;;;;;8.18;7.32;;;;;;;20.73;58.25;100429.34;4954232;28;20308;-82
2022/05/11 07:21:23;;;;;;;8.25;7.22;;;;;;;20.61;58.49;100428.19;4972275;28;20091;-82
2022/05/11 07:23:49;;;;;;;7.38;6.75;;;;;;;20.69;58.62;100434.88;4969566;28;20054;-83
2022/05/11 07:26:16;;;;;;;9.13;5.85;;;;;;;20.90;57.23;100425.75;4966423;28;21277;-81
2022/05/11 07:28:43;;;;;;;13.80;6.50;;;;;;;21.14;56.25;100420.81;4970849;28;20054;-83
2022/05/11 07:31:12;;;;;;;11.30;7.32;;;;;;;21.40;55.18;100421.13;4964819;28;20050;-82
2022/05/11 07:33:39;;;;;;;9.30;6.43;;;;;;;21.43;54.87;100418.31;4967572;28;20054;-83
2022/05/11 07:36:06;;;;;;;9.18;6.57;;;;;;;21.60;54.13;100422.69;4968396;28;20042;-84
2022/05/11 07:38:38;;;;;;;8.48;6.10;;;;;;;21.72;54.36;100423.75;4982386;28;20043;-83
2022/05/11 07:41:07;;;;;;;11.82;7.95;;;;;;;22.07;53.85;100418.09;4971096;28;20046;-83
2022/05/11 07:43:36;;;;;;;6.72;5.90;;;;;;;22.41;53.26;100410.72;4981290;28;20437;-85
2022/05/11 07:46:03;;;;;;;11.02;6.75;;;;;;;22.44;52.92;100407.00;4968344;28;20045;-83
2022/05/11 07:48:30;;;;;;;7.53;6.10;;;;;;;22.37;53.17;100406.53;4970157;28;20043;-83
2022/05/11 07:51:01;;;;;;;8.57;6.90;;;;;;;22.51;53.08;100402.13;4966930;28;20034;-83
2022/05/11 07:53:28;;;;;;;11.25;7.60;;;;;;;22.77;52.92;100403.13;4985582;28;20080;-82
2022/05/11 08:01:22;;;;;;;10.25;7.43;;;;;;;23.63;50.84;100396.63;4975179;28;20036;-84
2022/05/11 08:03:49;;;;;;;8.50;7.75;;;;;;;23.49;51.39;100402.06;4968899;28;20050;-82
2022/05/11 08:06:16;;;;;;;8.35;7.57;;;;;;;23.56;51.58;100392.69;4966232;28;20055;-84
2022/05/11 08:08:44;;;;;;;6.50;5.53;;;;;;;23.76;50.76;100397.50;4951553;28;20054;-83
2022/05/11 08:11:10;;;;;;;6.43;4.97;;;;;;;23.97;49.60;100390.81;4967628;28;20511;-85
2022/05/11 08:13:37;;;;;;;5.68;4.60;;;;;;;24.26;47.02;100388.75;4968310;28;20053;-83
2022/05/11 08:16:04;;;;;;;8.70;5.20;;;;;;;24.77;44.07;100383.34;4953762;28;20038;-83
2022/05/11 08:18:30;;;;;;;6.05;4.18;;;;;;;25.32;43.19;100384.69;4972146;28;20064;-84
2022/05/11 08:20:57;;;;;;;4.47;3.95;;;;;;;25.65;42.39;100384.00;4967252;28;20053;-84
2022/05/11 08:23:26;;;;;;;8.77;3.95;;;;;;;25.62;42.10;100376.19;4970818;28;22199;-83
2022/05/11 08:25:57;;;;;;;4.70;4.05;;;;;;;25.52;40.48;100378.72;4964374;28;20085;-84
2022/05/11 08:28:26;;;;;;;3.60;3.40;;;;;;;25.19;40.65;100376.75;4968914;28;20117;-84
2022/05/11 08:33:41;;;;;;;4.18;3.85;;;;;;;26.18;39.52;100367.41;4967638;28;20049;-83
2022/05/11 08:36:13;;;;;;;4.80;3.72;;;;;;;26.46;37.79;100370.56;4962586;28;20057;-83
2022/05/11 08:38:44;;;;;;;4.65;4.20;;;;;;;26.37;36.82;100361.44;4966721;28;20038;-85
2022/05/11 08:41:19;;;;;;;5.60;3.72;;;;;;;26.44;36.44;100353.75;4968792;28;20047;-83
2022/05/11 08:43:50;;;;;;;4.00;3.55;;;;;;;27.03;36.16;100359.72;4985578;28;20507;-83
2022/05/11 08:46:51;;;;;;;6.45;3.28;;;;;;;27.90;34.56;100353.31;4970055;28;20050;-84
2022/05/11 08:49:30;;;;;;;6.00;3.47;;;;;;;28.47;33.33;100350.97;4989998;28;20073;-84
2022/05/11 08:52:06;;;;;;;8.55;4.40;;;;;;;28.91;32.35;100341.75;4985782;28;20578;-84
2022/05/11 08:54:51;;;;;;;3.85;3.45;;;;;;;29.43;32.22;100349.56;4950224;28;20058;-83
2022/05/11 08:57:25;;;;;;;5.38;4.18;;;;;;;29.72;30.79;100341.41;4947601;28;20110;-83
2022/05/11 09:00:26;;;;;;;6.63;3.30;;;;;;;29.69;31.06;100352.50;4969770;28;20512;-83
2022/05/11 09:03:02;;;;;;;5.13;3.58;;;;;;;29.93;30.94;100349.31;4964253;28;20149;-83
2022/05/11 09:05:31;;;;;;;3.50;3.28;;;;;;;30.44;30.10;100347.13;4983459;28;20101;-85
2022/05/11 09:08:01;;;;;;;3.78;3.45;;;;;;;30.50;29.26;100343.00;4968655;28;20069;-83
2022/05/11 09:10:35;;;;;;;5.13;3.58;;;;;;;30.19;30.22;100343.25;4984415;28;20050;-85
2022/05/11 09:13:11;;;;;;;4.50;4.10;;;;;;;30.09;30.67;100339.75;4970425;28;20054;-85
2022/05/11 09:16:01;;;;;;;5.25;4.20;;;;;;;30.34;30.34;100333.66;4971840;28;20057;-84
2022/05/11 09:18:40;;;;;;;4.40;4.00;;;;;;;30.59;30.25;100333.13;4956356;28;20042;-84
2022/05/11 09:21:31;;;;;;;3.85;3.60;;;;;;;31.40;29.28;100337.63;4970103;28;20129;-84
2022/05/11 09:24:14;;;;;;;4.40;4.05;;;;;;;31.35;29.13;100337.25;4968460;28;20058;-84
2022/05/11 09:26:46;;;;;;;4.22;3.20;;;;;;;31.28;29.81;100337.03;4982195;28;20052;-84
2022/05/11 09:29:25;;;;;;;3.75;3.55;;;;;;;31.86;28.74;100328.47;4973413;28;20408;-84
2022/05/11 09:31:53;;;;;;;3.75;3.50;;;;;;;31.64;28.44;100334.28;4988778;28;20146;-83
2022/05/11 09:34:33;;;;;;;3.95;3.65;;;;;;;31.59;27.74;100331.16;4982730;28;20056;-83
2022/05/11 09:37:47;;;;;;;10.00;3.63;;;;;;;31.09;28.66;100329.09;4985764;28;20131;-84
2022/05/11 09:40:21;;;;;;;3.78;3.47;;;;;;;31.58;28.59;100321.34;4964325;28;20463;-84
2022/05/11 09:43:03;;;;;;;3.60;3.35;;;;;;;31.95;27.36;100317.50;4980771;28;20050;-84
2022/05/11 09:45:49;;;;;;;5.63;3.20;;;;;;;31.98;27.50;100310.94;4987405;28;20101;-84
2022/05/11 09:48:28;;;;;;;4.22;2.95;;;;;;;32.34;26.20;100313.47;4969924;28;20057;-83
2022/05/11 09:51:16;;;;;;;5.68;3.10;;;;;;;31.92;26.44;100308.91;4967008;28;20053;-84
2022/05/11 09:54:19;;;;;;;3.40;2.50;;;;;;;31.97;26.79;100315.50;4968295;28;20066;-83
2022/05/11 09:57:01;;;;;;;6.05;2.92;;;;;;;32.78;25.98;100307.03;4945646;28;20093;-82
2022/05/11 09:59:42;;;;;;;2.85;2.70;;;;;;;33.69;25.24;100305.13;4985715;28;20069;-83
2022/05/11 10:02:51;;;;;;;3.17;2.97;;;;;;;34.01;24.32;100305.22;4951212;28;20361;-83
2022/05/11 10:05:30;;;;;;;4.32;2.67;;;;;;;32.81;25.32;100298.53;4951368;28;20042;-83
2022/05/11 10:08:02;;;;;;;3.70;3.47;;;;;;;32.46;25.58;100304.06;4978665;28;20046;-83
2022/05/11 10:10:46;;;;;;;;;;;;;;;32.26;25.62;100314.31;4968741;28;20042;-83
2022/05/11 10:13:27;;;;;;;3.47;2.83;;;;;;;32.78;25.82;100294.28;4983380;28;19944;-83
2022/05/11 10:22:17;;;;;;;5.80;3.15;;;;;;;31.39;26.65;100283.69;4965744;28;20069;-84
2022/05/11 10:25:16;;;;;;;3.45;2.75;;;;;;;30.09;28.44;100291.16;4966000;28;20077;-84
2022/05/11 10:28:05;;;;;;;7.78;2.95;;;;;;;30.49;27.75;100282.75;4966964;28;20050;-84
2022/05/11 10:30:45;;;;;;;3.85;2.63;;;;;;;30.21;27.00;100287.28;4957302;28;20579;-83
2022/05/11 10:33:59;;;;;;;3.28;2.60;;;;;;;30.39;27.15;100283.75;4963252;28;20076;-83
2022/05/11 10:37:15;;;;;;;3.85;2.20;;;;;;;30.04;27.41;100280.84;4942400;28;20066;-82
2022/05/11 10:40:30;;;;;;;4.50;2.63;;;;;;;29.43;27.40;100272.22;4931343;28;20059;-81
2022/05/11 10:43:19;;;;;;;8.57;2.70;;;;;;;28.15;29.04;100287.44;4915440;28;20054;-82
2022/05/11 10:46:02;;;;;;;16.42;4.00;;;;;;;28.06;29.20;100280.19;4968010;28;20046;-81
2022/05/11 10:49:10;;;;;;;10.73;3.60;;;;;;;28.67;28.40;100265.75;4967563;28;20613;-82
2022/05/11 10:51:55;;;;;;;7.07;3.53;;;;;;;29.66;27.33;100272.72;4961553;28;20060;-82
2022/05/11 10:55:05;;;;;;;11.43;2.88;;;;;;;29.84;26.99;100256.63;4982799;28;20054;-82
2022/05/11 10:57:45;;;;;;;5.68;2.65;;;;;;;29.82;26.73;100276.66;4964936;28;20137;-81
2022/05/11 11:00:22;;;;;;;6.97;2.90;;;;;;;30.70;25.45;100265.34;4966191;28;20057;-83
2022/05/11 11:03:24;;;;;;;10.65;3.58;;;;;;;30.87;25.70;100262.81;4952645;28;20085;-82
2022/05/11 11:09:21;;;;;;;6.60;2.97;;;;;;;31.18;24.72;100258.72;4983501;28;20061;-83
2022/05/11 11:12:13;;;;;;;6.30;2.53;;;;;;;31.72;24.26;100263.13;4966882;28;20056;-83
2022/05/11 11:14:45;;;;;;;4.27;2.70;;;;;;;31.63;24.33;100261.41;4967316;28;20042;-83
2022/05/11 11:17:17;;;;;;;4.22;3.55;;;;;;;31.54;24.43;100249.63;4965060;28;20053;-83
2022/05/11 11:19:50;;;;;;;6.30;3.50;;;;;;;31.86;24.55;100264.34;4949850;28;20046;-81
2022/05/11 11:22:17;;;;;;;6.63;2.50;;;;;;;32.36;24.38;100248.31;4956209;28;20050;-83
2022/05/11 11:25:13;;;;;;;3.35;3.10;;;;;;;32.40;23.78;100257.78;4967507;28;20054;-83
2022/05/11 11:28:10;;;;;;;4.65;2.70;;;;;;;30.87;25.54;100258.25;4966559;28;20056;-83
2022/05/11 11:30:39;;;;;;;11.18;2.97;;;;;;;30.76;25.86;100253.09;4968572;28;20066;-84
2022/05/11 11:33:12;;;;;;;3.58;2.90;;;;;;;30.33;26.76;100255.50;4984180;28;20042;-84
2022/05/11 11:35:53;;;;;;;6.75;3.08;;;;;;;30.71;26.55;100248.16;4987881;28;20050;-84
2022/05/11 11:38:31;;;;;;;3.13;2.80;;;;;;;31.77;25.58;100254.50;4968656;28;20257;-84
2022/05/11 11:41:10;;;;;;;5.43;3.00;;;;;;;32.57;23.85;100240.56;4969119;28;20444;-83
2022/05/11 11:44:03;;;;;;;3.88;2.63;;;;;;;31.32;26.00;100251.88;4984585;28;20050;-83
2022/05/11 11:46:41;;;;;;;7.03;3.17;;;;;;;29.49;28.85;100255.47;4953145;28;20530;-85
2022/05/11 11:49:19;;;;;;;4.18;2.75;;;;;;;28.59;30.50;100259.31;4969193;28;20050;-83
2022/05/11 11:51:52;;;;;;;3.53;3.15;;;;;;;29.87;27.81;100242.00;4970564;28;20096;-84
2022/05/11 11:54:36;;;;;;;5.28;3.00;;;;;;;29.91;28.02;100245.22;4983294;28;20097;-84
2022/05/11 11:57:06;;;;;;;7.30;3.38;;;;;;;30.45;27.66;100248.88;4963045;28;20395;-84
2022/05/11 11:59:40;;;;;;;4.20;2.75;;;;;;;30.33;27.59;100250.13;4955490;28;20237;-84
2022/05/11 12:02:24;;;;;;;7.40;3.53;;;;;;;29.09;28.95;100245.72;4968563;28;20058;-84
2022/05/11 12:05:26;;;;;;;4.65;3.10;;;;;;;30.45;27.30;100246.19;4972006;28;20046;-83
2022/05/11 12:16:59;;;;;;;7.05;2.60;;;;;;;32.99;23.76;100234.16;4970396;28;20092;-83
2022/05/11 12:19:33;;;;;;;6.00;2.88;;;;;;;31.96;25.38;100232.59;4954670;28;20089;-85
2022/05/11 12:22:22;;;;;;;5.90;3.63;;;;;;;30.30;27.40;100242.34;4959871;28;20305;-84
2022/05/11 12:25:14;;;;;;;12.80;4.20;;;;;;;30.66;27.00;100231.56;4984014;28;20059;-85
2022/05/11 12:27:41;;;;;;;7.93;3.10;;;;;;;30.46;26.87;100236.25;4971208;28;20033;-83
2022/05/11 12:30:25;;;;;;;4.20;2.30;;;;;;;30.43;26.93;100244.63;4958840;28;20057;-84
2022/05/11 12:32:59;;;;;;;8.10;2.65;;;;;;;30.70;26.85;100241.03;4974017;28;20081;-83
2022/05/11 12:35:38;;;;;;;6.18;2.88;;;;;;;31.49;25.93;100231.16;4970723;28;20038;-84
2022/05/11 12:38:10;;;;;;;5.32;3.42;;;;;;;31.05;26.25;100236.63;4986665;28;20053;-84